Latest Coastal Weather Observations for Bunbury

IDW60701

Issued at 7:42 pm WST Tuesday 21 April 2015 (issued every 10 minutes, with the page automatically refreshed every 10 minutes)

About coastal observations | Map of coastal stations | Coastal observations for WA | Marine services | Other Formats
Station Details ID: 009965 Name: BUNBURY Lat: -33.36 Lon: 115.64 Height: 5.2 m
Data from the previous 72 hours. | See also: Recent months at Bunbury
Date/Time
WST
Temp

°C
Wind Pressure Rain
since 9am
mm
Weather Cloud Vis
km
Sea
Height
m
Swell
Dir
 
Speed
knots
Gust
knots
hPa Trend Height
m
Period
s
Dir
21/07:30pm 17.4 S 3 3 1020.7 - 0.0 - - - - - - -
21/07:00pm 18.0 SSW 4 5 1020.4 - 0.0 - - - - - - -
21/06:30pm 18.3 SSW 4 5 1020.1 - 0.0 - - - - - - -
21/06:00pm 18.8 SW 4 6 1020.0 - 0.0 - - - - - - -
21/05:30pm 20.0 SW 5 7 1020.0 - 0.0 - - - - - - -
21/05:00pm 20.9 WSW 5 8 1019.9 - 0.0 - - - - - - -
21/04:30pm 22.1 WSW 5 6 1019.8 - 0.0 - - - - - - -
21/04:00pm 22.3 WSW 5 6 1020.0 - 0.0 - - - - - - -
21/03:30pm 23.0 W 4 5 1020.0 - 0.0 - - - - - - -
21/03:00pm 23.1 W 5 7 1020.1 - 0.0 - - - - - - -
21/02:30pm 23.1 WNW 5 8 1020.2 - 0.0 - - - - - - -
21/02:00pm 23.9 WNW 4 6 1020.2 - 0.0 - - - - - - -
21/01:30pm 23.5 NW 5 7 1020.5 - 0.0 - - - - - - -
21/01:00pm 23.9 NW 4 8 1020.8 - 0.0 - - - - - - -
21/12:30pm 23.7 NW 5 9 1021.3 - 0.0 - - - - - - -
21/12:00pm 23.8 NNW 5 7 1021.8 - 0.0 - - - - - - -
21/11:30am 23.5 N 5 8 1022.2 - 0.0 - - - - - - -
21/11:00am 23.1 NNE 6 9 1022.4 - 0.0 - - - - - - -
21/10:30am 22.4 N 4 6 1022.7 - 0.0 - - - - - - -
21/10:00am 21.7 NNE 5 8 1022.9 - 0.0 - - - - - - -
21/09:30am 20.5 NE 3 5 1023.1 - 0.0 - - - - - - -
21/09:00am 17.8 E 2 2 1023.3 - 0.0 - - - - - - -
21/08:30am 14.7 E 2 3 1023.5 - 0.0 - - - - - - -
21/08:00am 11.2 E 1 2 1023.3 - 0.0 - - - - - - -
21/07:30am 8.2 CALM 0 0 1023.1 - 0.0 - - - - - - -
21/07:00am 7.5 CALM 0 0 1022.8 - 0.0 - - - - - - -
21/06:30am 7.6 SSW 1 2 1022.9 - 0.0 - - - - - - -
21/06:00am 7.7 CALM 0 0 1022.6 - 0.0 - - - - - - -
21/05:30am 7.4 CALM 0 0 1022.6 - 0.0 - - - - - - -
21/05:00am 7.7 CALM 0 0 1022.4 - 0.0 - - - - - - -
21/04:30am 7.8 CALM 0 0 1022.2 - 0.0 - - - - - - -
21/04:00am 8.4 CALM 0 0 1021.9 - 0.0 - - - - - - -
21/03:30am 8.7 S 1 2 1021.9 - 0.0 - - - - - - -
21/03:00am 9.2 SSE 1 2 1021.9 - 0.0 - - - - - - -
21/02:30am 9.2 S 1 1 1022.1 - 0.0 - - - - - - -
21/02:00am 9.7 CALM 0 0 1022.2 - 0.0 - - - - - - -
21/01:30am 10.6 CALM 0 1 1022.2 - 0.0 - - - - - - -
21/01:00am 10.6 ESE 1 2 1022.3 - 0.0 - - - - - - -
21/12:30am 10.4 CALM 0 0 1022.3 - 0.0 - - - - - - -
21/12:00am 11.8 CALM 0 1 1022.4 - 0.0 - - - - - - -
 
Date/Time
WST
Temp

°C
Wind Pressure Rain
since 9am
mm
Weather Cloud Vis
km
Sea
Height
m
Swell
Dir
 
Speed
knots
Gust
knots
hPa Trend Height
m
Period
s
Dir
20/11:30pm 12.2 CALM 0 1 1022.5 - 0.0 - - - - - - -
20/11:00pm 11.9 CALM 0 1 1022.9 - 0.0 - - - - - - -
20/10:30pm 13.1 CALM 0 1 1023.1 - 0.0 - - - - - - -
20/10:00pm 12.7 E 1 3 1023.2 - 0.0 - - - - - - -
20/09:30pm 13.5 CALM 0 1 1023.4 - 0.0 - - - - - - -
20/09:00pm 14.4 ESE 2 3 1023.5 - 0.0 - - - - - - -
20/08:30pm 14.6 CALM 0 0 1023.5 - 0.0 - - - - - - -
20/08:00pm 15.4 CALM 0 0 1023.4 - 0.0 - - - - - - -
20/07:30pm 15.8 SSW 1 2 1023.2 - 0.0 - - - - - - -
20/07:00pm 18.8 SSW 3 4 1023.0 - 0.0 - - - - - - -
20/06:30pm 19.6 SSW 3 4 1022.8 - 0.0 - - - - - - -
20/06:00pm 20.0 SSW 5 7 1022.7 - 0.0 - - - - - - -
20/05:30pm 21.5 SW 4 5 1022.6 - 0.0 - - - - - - -
20/05:00pm 22.3 SW 5 7 1022.5 - 0.0 - - - - - - -
20/04:30pm 23.3 WSW 5 7 1022.5 - 0.0 - - - - - - -
20/04:00pm 24.1 WSW 5 7 1022.5 - 0.0 - - - - - - -
20/03:30pm 24.1 WSW 5 7 1022.6 - 0.0 - - - - - - -
20/03:00pm 23.2 SW 6 8 1022.8 - 0.0 - - - - - - -
20/02:30pm 23.2 WSW 6 9 1022.9 - 0.0 - - - - - - -
20/02:00pm 24.1 W 6 8 1023.1 - 0.0 - - - - - - -
20/01:30pm 25.4 NW 6 7 1023.3 - 0.0 - - - - - - -
20/01:00pm 26.0 NNW 4 11 1023.7 - 0.0 - - - - - - -
20/12:30pm 25.7 NE 4 7 1024.2 - 0.0 - - - - - - -
20/12:00pm 25.1 N 5 7 1024.9 - 0.0 - - - - - - -
20/11:30am 24.4 NNE 4 8 1025.3 - 0.0 - - - - - - -
20/11:00am 23.9 N 6 8 1025.7 - 0.0 - - - - - - -
20/10:30am 23.1 NE 6 8 1025.9 - 0.0 - - - - - - -
20/10:00am 22.2 NE 7 11 1026.0 - 0.0 - - - - - - -
20/09:30am 21.2 NE 7 10 1026.1 - 0.0 - - - - - - -
20/09:00am 19.8 ENE 7 10 1026.2 - 0.0 - - - - - - -
20/08:30am 18.2 ENE 7 10 1026.1 - 0.0 - - - - - - -
20/08:00am 16.3 ENE 4 6 1026.1 - 0.0 - - - - - - -
20/07:30am 12.7 ENE 3 4 1026.1 - 0.0 - - - - - - -
20/07:00am 10.2 E 3 4 1026.0 - 0.0 - - - - - - -
20/06:30am 9.1 ESE 3 4 1025.7 - 0.0 - - - - - - -
20/06:00am 10.6 E 2 3 1025.6 - 0.0 - - - - - - -
20/05:30am 11.7 E 3 4 1025.4 - 0.0 - - - - - - -
20/05:00am 12.2 E 2 3 1025.5 - 0.0 - - - - - - -
20/04:30am 12.4 E 4 5 1025.6 - 0.0 - - - - - - -
20/04:00am 11.3 ESE 4 5 1025.7 - 0.0 - - - - - - -
20/03:30am 11.9 ESE 3 5 1025.6 - 0.0 - - - - - - -
20/03:00am 11.8 ESE 2 3 1025.8 - 0.0 - - - - - - -
20/02:30am 12.8 E 4 4 1025.8 - 0.0 - - - - - - -
20/02:00am 14.0 E 3 5 1025.9 - 0.0 - - - - - - -
20/01:30am 14.1 E 5 5 1025.9 - 0.0 - - - - - - -
20/01:00am 12.2 E 3 4 1025.9 - 0.0 - - - - - - -
20/12:30am 11.9 E 2 3 1025.9 - 0.0 - - - - - - -
20/12:00am 11.8 E 2 3 1025.9 - 0.0 - - - - - - -
 
Date/Time
WST
Temp

°C
Wind Pressure Rain
since 9am
mm
Weather Cloud Vis
km
Sea
Height
m
Swell
Dir
 
Speed
knots
Gust
knots
hPa Trend Height
m
Period
s
Dir
19/11:30pm 13.8 E 1 1 1026.1 - 0.0 - - - - - - -
19/11:00pm 13.4 ESE 2 3 1026.3 - 0.0 - - - - - - -
19/10:30pm 13.0 ESE 3 3 1026.4 - 0.0 - - - - - - -
19/10:00pm 14.2 ESE 2 3 1026.4 - 0.0 - - - - - - -
19/09:30pm 14.2 ESE 2 3 1026.2 - 0.0 - - - - - - -
19/09:00pm 13.8 E 1 2 1026.1 - 0.0 - - - - - - -
19/08:30pm 14.2 CALM 0 0 1025.9 - 0.0 - - - - - - -
19/08:00pm 14.8 CALM 0 1 1025.9 - 0.0 - - - - - - -
19/07:30pm 15.3 SSW 2 3 1025.9 - 0.0 - - - - - - -
19/07:00pm 16.0 CALM 0 0 1025.7 - 0.0 - - - - - - -
19/06:30pm 18.3 CALM 0 0 1025.5 - 0.0 - - - - - - -
19/06:00pm 19.8 SSW 1 2 1025.1 - 0.0 - - - - - - -
19/05:30pm 21.2 SW 4 6 1024.8 - 0.0 - - - - - - -
19/05:00pm 22.8 SW 5 6 1024.6 - 0.0 - - - - - - -
19/04:30pm 23.5 WSW 5 7 1024.5 - 0.0 - - - - - - -
19/04:00pm 24.2 WSW 5 6 1024.6 - 0.0 - - - - - - -
19/03:30pm 24.6 WSW 4 6 1024.6 - 0.0 - - - - - - -
19/03:00pm 25.0 W 5 6 1024.6 - 0.0 - - - - - - -
19/02:30pm 25.6 NW 5 7 1024.5 - 0.0 - - - - - - -
19/02:00pm 25.4 NW 6 8 1024.7 - 0.0 - - - - - - -
19/01:30pm 25.5 NW 2 5 1024.8 - 0.0 - - - - - - -
19/01:00pm 25.8 N 6 10 1025.3 - 0.0 - - - - - - -
19/12:30pm 24.9 NE 5 9 1025.7 - 0.0 - - - - - - -
19/12:00pm 24.8 NNE 6 11 1026.2 - 0.0 - - - - - - -
19/11:30am 23.7 NE 7 12 1026.6 - 0.0 - - - - - - -
19/11:00am 23.2 NE 7 12 1026.9 - 0.0 - - - - - - -
19/10:30am 22.5 NE 7 11 1027.0 - 0.0 - - - - - - -
19/10:00am 21.5 ENE 8 12 1027.1 - 0.0 - - - - - - -
19/09:30am 20.4 ENE 9 13 1027.0 - 0.0 - - - - - - -
19/09:00am 18.8 ENE 8 13 1027.1 - 0.0 - - - - - - -
19/08:30am 17.7 ENE 7 11 1027.1 - 0.0 - - - - - - -
19/08:00am 16.0 ENE 6 8 1027.0 - 0.0 - - - - - - -
19/07:30am 14.9 E 6 9 1026.6 - 0.0 - - - - - - -
19/07:00am 14.0 E 6 8 1026.1 - 0.0 - - - - - - -
19/06:30am 14.0 E 7 10 1026.0 - 0.0 - - - - - - -
19/06:00am 14.0 E 7 10 1025.8 - 0.0 - - - - - - -
19/05:30am 14.4 ENE 6 10 1025.7 - 0.0 - - - - - - -
19/05:00am 14.9 E 8 12 1025.4 - 0.0 - - - - - - -
19/04:30am 15.2 ENE 9 15 1025.1 - 0.0 - - - - - - -
19/04:00am 15.2 E 8 11 1024.9 - 0.0 - - - - - - -
19/03:30am 15.3 E 10 14 1025.0 - 0.0 - - - - - - -
19/03:00am 15.4 E 9 13 1025.0 - 0.0 - - - - - - -
19/02:30am 15.7 E 8 12 1025.1 - 0.0 - - - - - - -
19/02:00am 15.7 E 8 12 1025.2 - 0.0 - - - - - - -
19/01:30am 15.8 E 9 14 1025.2 - 0.0 - - - - - - -
19/01:00am 16.1 E 10 13 1025.3 - 0.0 - - - - - - -
19/12:30am 16.2 E 10 15 1025.2 - 0.0 - - - - - - -
19/12:00am 16.4 E 10 15 1025.2 - 0.0 - - - - - - -
 
Date/Time
WST
Temp

°C
Wind Pressure Rain
since 9am
mm
Weather Cloud Vis
km
Sea
Height
m
Swell
Dir
 
Speed
knots
Gust
knots
hPa Trend Height
m
Period
s
Dir
18/11:30pm 16.5 E 8 13 1025.3 - 0.0 - - - - - - -
18/11:00pm 17.0 E 9 14 1025.4 - 0.0 - - - - - - -
18/10:30pm 17.1 E 9 14 1025.4 - 0.0 - - - - - - -
18/10:00pm 17.4 E 7 12 1025.5 - 0.0 - - - - - - -
18/09:30pm 17.3 ESE 6 9 1025.5 - 0.0 - - - - - - -
18/09:00pm 17.7 ESE 6 9 1025.3 - 0.0 - - - - - - -
18/08:30pm 17.9 ESE 6 11 1025.0 - 0.0 - - - - - - -
18/08:00pm 18.0 ESE 6 8 1024.8 - 0.0 - - - - - - -

Other Formats:

Comma delimited format used in spreadsheet applications
http://www.bom.gov.au/fwo/IDW60701/IDW60701.94604.axf

JavaScript Object Notation format (JSON) in row-major order
http://www.bom.gov.au/fwo/IDW60701/IDW60701.94604.json